Time;durP1;ratioP1;P1;durP2;ratioP2;P2;SDS_P1;SDS_P2;PMS_P1;PMS_P2;Temp;Humidity;BMP_temperature;BMP_pressure;BME280_temperature;BME280_humidity;BME280_pressure;Samples;Min_cycle;Max_cycle;Signal;HPM_P1;HPM_P2
2023/12/03 00:00:40;;;;;;;6.45;2.55;;;;;;;;;;5174306;28;20049;-61
2023/12/03 00:03:12;;;;;;;4.78;2.15;;;;;;;;;;5183243;28;20041;-61
2023/12/03 00:05:43;;;;;;;4.18;2.33;;;;;;;;;;5168868;28;20375;-61
2023/12/03 00:08:14;;;;;;;6.38;2.80;;;;;;;;;;5169975;28;20122;-60
2023/12/03 00:10:46;;;;;;;4.97;2.58;;;;;;;;;;5168060;28;20129;-60
2023/12/03 00:13:17;;;;;;;11.30;3.15;;;;;;;;;;5167549;28;20046;-60
2023/12/03 00:15:48;;;;;;;4.78;2.67;;;;;;;;;;5170020;28;20041;-60
2023/12/03 00:18:19;;;;;;;8.20;2.83;;;;;;;;;;5175412;28;20042;-60
2023/12/03 00:20:50;;;;;;;3.85;2.00;;;;;;;;;;5169930;28;20061;-60
2023/12/03 00:23:21;;;;;;;3.00;1.80;;;;;;;;;;5161461;28;20041;-62
2023/12/03 00:25:52;;;;;;;4.30;2.70;;;;;;;;;;5150264;28;20053;-60
2023/12/03 00:28:23;;;;;;;5.82;2.00;;;;;;;;;;5167909;28;20046;-62
2023/12/03 00:30:54;;;;;;;3.40;2.08;;;;;;;;;;5167737;28;20045;-62
2023/12/03 00:33:26;;;;;;;3.80;2.15;;;;;;;;;;5165012;28;20212;-62
2023/12/03 00:35:59;;;;;;;3.83;2.30;;;;;;;;;;5166309;28;20045;-62
2023/12/03 00:38:30;;;;;;;6.28;2.60;;;;;;;;;;5165147;28;20056;-62
2023/12/03 00:41:01;;;;;;;3.50;1.92;;;;;;;;;;5167739;28;20050;-61
2023/12/03 00:43:32;;;;;;;6.32;2.42;;;;;;;;;;5168131;28;20042;-62
2023/12/03 00:46:03;;;;;;;4.25;2.38;;;;;;;;;;5174455;28;20053;-62
2023/12/03 00:48:35;;;;;;;5.63;2.28;;;;;;;;;;5168169;28;20077;-62
2023/12/03 00:51:06;;;;;;;4.78;2.22;;;;;;;;;;5168826;28;20046;-61
2023/12/03 00:53:37;;;;;;;3.85;2.33;;;;;;;;;;5167322;28;20109;-61
2023/12/03 00:56:09;;;;;;;3.95;2.08;;;;;;;;;;5175445;28;20046;-60
2023/12/03 00:58:40;;;;;;;4.35;2.17;;;;;;;;;;5163341;28;20488;-63
2023/12/03 01:01:11;;;;;;;5.22;2.28;;;;;;;;;;5167655;28;20054;-64
2023/12/03 01:03:42;;;;;;;2.92;2.05;;;;;;;;;;5168434;28;20037;-64
2023/12/03 01:06:13;;;;;;;4.13;1.92;;;;;;;;;;5153851;28;20042;-63
2023/12/03 01:08:44;;;;;;;3.33;1.75;;;;;;;;;;5176617;28;20053;-62
2023/12/03 01:11:16;;;;;;;3.00;1.77;;;;;;;;;;5180557;28;20041;-62
2023/12/03 01:13:47;;;;;;;2.92;1.35;;;;;;;;;;5158242;28;20041;-62
2023/12/03 01:16:18;;;;;;;6.45;2.00;;;;;;;;;;5166348;28;20084;-61
2023/12/03 01:18:49;;;;;;;4.72;1.90;;;;;;;;;;5164178;28;20799;-63
2023/12/03 01:21:20;;;;;;;2.97;1.63;;;;;;;;;;5171218;28;20447;-63
2023/12/03 01:23:51;;;;;;;4.65;1.90;;;;;;;;;;5167427;28;20053;-64
2023/12/03 01:26:22;;;;;;;6.07;2.08;;;;;;;;;;5169957;28;20401;-64
2023/12/03 01:28:54;;;;;;;4.05;2.00;;;;;;;;;;5165121;28;20108;-60
2023/12/03 01:31:25;;;;;;;4.18;1.70;;;;;;;;;;5151402;28;20046;-62
2023/12/03 01:33:56;;;;;;;4.72;2.15;;;;;;;;;;5149549;28;20464;-62
2023/12/03 01:36:27;;;;;;;5.45;1.95;;;;;;;;;;5172801;28;20034;-62
2023/12/03 01:38:59;;;;;;;4.97;2.08;;;;;;;;;;5179474;28;20034;-63
2023/12/03 01:41:30;;;;;;;3.72;2.10;;;;;;;;;;5178475;28;20046;-62
2023/12/03 01:44:01;;;;;;;5.05;2.03;;;;;;;;;;5166639;28;20049;-63
2023/12/03 01:46:32;;;;;;;3.88;2.10;;;;;;;;;;5167796;28;20120;-63
2023/12/03 01:49:03;;;;;;;3.97;2.15;;;;;;;;;;5163922;28;20046;-63
2023/12/03 01:51:34;;;;;;;2.85;1.73;;;;;;;;;;5167072;28;20041;-64
2023/12/03 01:54:06;;;;;;;3.67;2.00;;;;;;;;;;5166301;28;20045;-63
2023/12/03 01:56:37;;;;;;;2.88;1.83;;;;;;;;;;5172364;28;20044;-61
2023/12/03 01:59:08;;;;;;;3.42;2.10;;;;;;;;;;5171668;28;20418;-60
2023/12/03 02:01:39;;;;;;;5.40;2.10;;;;;;;;;;5150744;28;20037;-61
2023/12/03 02:04:11;;;;;;;4.85;1.90;;;;;;;;;;5166924;28;20511;-61
2023/12/03 02:06:42;;;;;;;2.93;2.10;;;;;;;;;;5166161;28;20037;-60
2023/12/03 02:09:14;;;;;;;4.45;1.92;;;;;;;;;;5166498;28;20050;-60
2023/12/03 02:11:46;;;;;;;5.60;2.40;;;;;;;;;;5166397;28;20037;-61
2023/12/03 02:14:17;;;;;;;3.45;1.90;;;;;;;;;;5166692;28;20135;-63
2023/12/03 02:16:48;;;;;;;4.20;2.47;;;;;;;;;;5171349;28;20033;-61
2023/12/03 02:19:19;;;;;;;4.55;2.70;;;;;;;;;;5166360;28;20540;-62
2023/12/03 02:21:50;;;;;;;5.05;2.22;;;;;;;;;;5166431;28;20045;-62
2023/12/03 02:24:22;;;;;;;5.30;2.55;;;;;;;;;;5162677;28;20052;-62
2023/12/03 02:26:53;;;;;;;5.45;2.33;;;;;;;;;;5168991;28;20346;-63
2023/12/03 02:29:24;;;;;;;6.35;2.58;;;;;;;;;;5171161;28;20103;-62
2023/12/03 02:31:55;;;;;;;5.47;2.58;;;;;;;;;;5153714;28;20504;-62
2023/12/03 02:34:27;;;;;;;4.00;2.37;;;;;;;;;;5166083;28;20128;-63
2023/12/03 02:36:58;;;;;;;4.13;2.67;;;;;;;;;;5173046;28;20283;-62
2023/12/03 02:39:29;;;;;;;3.22;2.00;;;;;;;;;;5166565;28;20072;-62
2023/12/03 02:42:00;;;;;;;4.43;2.90;;;;;;;;;;5170992;28;20045;-62
2023/12/03 02:44:31;;;;;;;6.25;2.70;;;;;;;;;;5176140;28;20041;-62
2023/12/03 02:47:03;;;;;;;4.72;2.53;;;;;;;;;;5165920;28;20054;-60
2023/12/03 02:49:34;;;;;;;5.50;2.40;;;;;;;;;;5154672;28;20045;-62
2023/12/03 02:52:05;;;;;;;3.55;2.35;;;;;;;;;;5163829;28;20050;-62
2023/12/03 02:54:38;;;;;;;4.88;2.80;;;;;;;;;;5175156;28;20396;-63
2023/12/03 02:57:09;;;;;;;3.47;2.55;;;;;;;;;;5151562;28;20129;-63
2023/12/03 02:59:40;;;;;;;7.20;2.88;;;;;;;;;;5166472;28;20200;-62
2023/12/03 03:02:11;;;;;;;4.45;2.67;;;;;;;;;;5167537;28;20483;-62
2023/12/03 03:04:43;;;;;;;5.38;2.88;;;;;;;;;;5168857;28;20076;-61
2023/12/03 03:07:14;;;;;;;4.88;2.50;;;;;;;;;;5170099;28;20049;-61
2023/12/03 03:09:45;;;;;;;5.00;3.08;;;;;;;;;;5176804;28;20482;-62
2023/12/03 03:12:16;;;;;;;3.97;2.53;;;;;;;;;;5153226;28;20132;-61
2023/12/03 03:14:47;;;;;;;5.05;2.50;;;;;;;;;;5172754;28;20041;-60
2023/12/03 03:17:18;;;;;;;3.63;2.42;;;;;;;;;;5179672;28;20038;-61
2023/12/03 03:19:49;;;;;;;4.95;2.70;;;;;;;;;;5169083;28;20038;-61
2023/12/03 03:22:20;;;;;;;4.97;2.63;;;;;;;;;;5153641;28;20566;-61
2023/12/03 03:24:52;;;;;;;4.43;2.25;;;;;;;;;;5172774;28;20091;-61
2023/12/03 03:27:23;;;;;;;6.97;2.75;;;;;;;;;;5181822;28;20071;-61
2023/12/03 03:29:54;;;;;;;4.22;2.30;;;;;;;;;;5175029;28;20483;-62
2023/12/03 03:32:26;;;;;;;3.90;2.42;;;;;;;;;;5169401;28;20053;-62
2023/12/03 03:34:57;;;;;;;6.78;2.90;;;;;;;;;;5177413;28;20069;-61
2023/12/03 03:37:28;;;;;;;4.47;2.60;;;;;;;;;;5175765;28;20044;-61
2023/12/03 03:39:59;;;;;;;4.82;3.05;;;;;;;;;;5162000;28;20045;-62
2023/12/03 03:42:30;;;;;;;4.07;2.75;;;;;;;;;;5184698;28;20041;-59
2023/12/03 03:45:01;;;;;;;5.93;2.63;;;;;;;;;;5175265;28;20056;-59
2023/12/03 03:47:35;;;;;;;5.32;2.70;;;;;;;;;;5181532;28;20060;-59
2023/12/03 03:50:07;;;;;;;4.63;2.65;;;;;;;;;;5170020;28;20061;-59
2023/12/03 03:52:38;;;;;;;4.97;3.00;;;;;;;;;;5156562;28;20045;-60
2023/12/03 03:55:09;;;;;;;3.63;2.45;;;;;;;;;;5169021;28;20050;-59
2023/12/03 03:57:40;;;;;;;6.07;2.80;;;;;;;;;;5153710;28;20049;-59
2023/12/03 04:00:11;;;;;;;4.28;2.22;;;;;;;;;;5170940;28;20163;-59
2023/12/03 04:02:42;;;;;;;4.32;2.45;;;;;;;;;;5168694;28;20130;-59
2023/12/03 04:05:14;;;;;;;5.50;2.47;;;;;;;;;;5169076;28;20053;-60
2023/12/03 04:07:45;;;;;;;4.97;3.00;;;;;;;;;;5171262;28;20368;-59
2023/12/03 04:10:16;;;;;;;4.93;2.38;;;;;;;;;;5157800;28;20121;-59
2023/12/03 04:12:48;;;;;;;4.57;2.53;;;;;;;;;;5151726;28;20072;-59
2023/12/03 04:15:19;;;;;;;4.78;2.72;;;;;;;;;;5156956;28;20117;-59
2023/12/03 04:17:50;;;;;;;5.05;2.90;;;;;;;;;;5177100;28;20132;-59
2023/12/03 04:20:21;;;;;;;3.78;2.47;;;;;;;;;;5168361;28;20121;-59
2023/12/03 04:22:52;;;;;;;4.53;2.72;;;;;;;;;;5168863;28;20053;-59
2023/12/03 04:25:23;;;;;;;5.38;3.10;;;;;;;;;;5169750;28;20164;-59
2023/12/03 04:27:54;;;;;;;6.05;2.90;;;;;;;;;;5152909;28;20108;-59
2023/12/03 04:30:26;;;;;;;5.65;2.90;;;;;;;;;;5160096;28;20384;-59
2023/12/03 04:32:57;;;;;;;4.07;2.72;;;;;;;;;;5160521;28;20129;-59
2023/12/03 04:35:28;;;;;;;4.15;2.75;;;;;;;;;;5169832;28;20045;-58
2023/12/03 04:37:59;;;;;;;5.05;3.10;;;;;;;;;;5166004;28;20080;-59
2023/12/03 04:40:31;;;;;;;4.45;2.70;;;;;;;;;;5159002;28;20049;-59
2023/12/03 04:43:02;;;;;;;4.57;2.47;;;;;;;;;;5172447;28;20033;-59
2023/12/03 04:45:33;;;;;;;3.40;2.60;;;;;;;;;;5164304;28;20091;-58
2023/12/03 04:48:05;;;;;;;4.90;2.90;;;;;;;;;;5166059;28;20125;-59
2023/12/03 04:50:36;;;;;;;5.75;3.05;;;;;;;;;;5167970;28;20100;-62
2023/12/03 04:53:07;;;;;;;4.03;2.45;;;;;;;;;;5168607;28;20420;-61
2023/12/03 04:55:38;;;;;;;4.78;3.17;;;;;;;;;;5168183;28;20092;-61
2023/12/03 04:58:10;;;;;;;5.78;3.00;;;;;;;;;;5168239;28;20488;-63
2023/12/03 05:00:41;;;;;;;4.50;2.70;;;;;;;;;;5166978;28;20077;-62
2023/12/03 05:03:12;;;;;;;4.85;2.70;;;;;;;;;;5185911;28;20038;-62
2023/12/03 05:05:43;;;;;;;4.40;2.60;;;;;;;;;;5179092;28;20037;-62
2023/12/03 05:08:14;;;;;;;5.78;3.30;;;;;;;;;;5174523;28;20041;-63
2023/12/03 05:10:45;;;;;;;3.88;2.70;;;;;;;;;;5168881;28;20053;-61
2023/12/03 05:13:16;;;;;;;5.82;3.30;;;;;;;;;;5175602;28;20455;-62
2023/12/03 05:15:47;;;;;;;4.20;2.67;;;;;;;;;;5167506;28;20108;-61
2023/12/03 05:18:18;;;;;;;6.72;3.17;;;;;;;;;;5173464;28;20438;-61
2023/12/03 05:20:50;;;;;;;4.05;2.72;;;;;;;;;;5174143;28;20041;-62
2023/12/03 05:23:21;;;;;;;4.68;2.92;;;;;;;;;;5152379;28;20041;-61
2023/12/03 05:25:53;;;;;;;4.10;2.70;;;;;;;;;;5167298;28;20081;-61
2023/12/03 05:28:24;;;;;;;5.85;3.28;;;;;;;;;;5167161;28;20033;-62
2023/12/03 05:30:55;;;;;;;7.65;3.45;;;;;;;;;;5168617;28;20046;-61
2023/12/03 05:33:26;;;;;;;6.90;3.10;;;;;;;;;;5150827;28;20042;-59
2023/12/03 05:35:58;;;;;;;5.13;2.97;;;;;;;;;;5166993;28;20127;-62
2023/12/03 05:38:29;;;;;;;5.43;2.80;;;;;;;;;;5168842;28;20631;-62
2023/12/03 05:41:00;;;;;;;7.03;3.00;;;;;;;;;;5158731;28;20048;-61
2023/12/03 05:43:31;;;;;;;5.13;2.95;;;;;;;;;;5152570;28;20546;-61
2023/12/03 05:46:02;;;;;;;5.40;2.95;;;;;;;;;;5171822;28;20053;-60
2023/12/03 05:48:34;;;;;;;5.88;2.97;;;;;;;;;;5168998;28;20125;-61
2023/12/03 05:51:10;;;;;;;6.47;3.45;;;;;;;;;;5153442;28;20137;-60
2023/12/03 05:53:41;;;;;;;4.60;3.10;;;;;;;;;;5167675;28;20033;-61
2023/12/03 05:56:12;;;;;;;4.35;2.88;;;;;;;;;;5150370;28;20038;-61
2023/12/03 05:58:43;;;;;;;5.05;3.10;;;;;;;;;;5166138;28;20042;-60
2023/12/03 06:01:22;;;;;;;5.53;2.80;;;;;;;;;;5158240;28;20042;-60
2023/12/03 06:03:53;;;;;;;4.75;2.85;;;;;;;;;;5174075;28;20037;-60
2023/12/03 06:06:24;;;;;;;5.13;2.95;;;;;;;;;;5167349;28;20057;-60
2023/12/03 06:08:55;;;;;;;4.70;3.15;;;;;;;;;;5177213;28;20049;-61
2023/12/03 06:11:27;;;;;;;4.68;2.70;;;;;;;;;;5170518;28;20449;-61
2023/12/03 06:13:59;;;;;;;4.82;3.28;;;;;;;;;;5167348;28;20480;-61
2023/12/03 06:16:30;;;;;;;4.17;2.77;;;;;;;;;;5167504;28;20052;-60
2023/12/03 06:19:01;;;;;;;7.33;3.37;;;;;;;;;;5151748;28;20038;-60
2023/12/03 06:21:32;;;;;;;5.28;3.35;;;;;;;;;;5174456;28;20572;-60
2023/12/03 06:24:05;;;;;;;5.50;3.20;;;;;;;;;;5168412;28;20052;-60
2023/12/03 06:26:36;;;;;;;4.57;3.38;;;;;;;;;;5149308;28;20427;-60
2023/12/03 06:29:07;;;;;;;8.88;3.63;;;;;;;;;;5166934;28;20037;-60
2023/12/03 06:31:39;;;;;;;5.82;3.38;;;;;;;;;;5167462;28;20042;-60
2023/12/03 06:34:11;;;;;;;5.38;3.47;;;;;;;;;;5172031;28;20046;-60
2023/12/03 06:36:43;;;;;;;5.80;3.22;;;;;;;;;;5166802;28;20121;-60
2023/12/03 06:39:14;;;;;;;6.00;3.50;;;;;;;;;;5166050;28;20461;-59
2023/12/03 06:41:45;;;;;;;5.38;3.53;;;;;;;;;;5166117;28;20132;-59
2023/12/03 06:44:16;;;;;;;5.40;3.20;;;;;;;;;;5167868;28;20124;-60
2023/12/03 06:46:47;;;;;;;5.78;3.05;;;;;;;;;;5173101;28;20042;-59
2023/12/03 06:49:18;;;;;;;5.47;3.35;;;;;;;;;;5165779;28;20121;-59
2023/12/03 06:51:49;;;;;;;4.68;3.08;;;;;;;;;;5166752;28;20053;-59
2023/12/03 06:54:20;;;;;;;7.07;3.45;;;;;;;;;;5173230;28;20519;-58
2023/12/03 06:56:51;;;;;;;7.05;3.25;;;;;;;;;;5165206;28;20057;-60
2023/12/03 06:59:23;;;;;;;6.00;3.40;;;;;;;;;;5165552;28;20129;-59
2023/12/03 07:01:54;;;;;;;5.13;3.38;;;;;;;;;;5165418;28;20522;-60
2023/12/03 07:04:25;;;;;;;6.03;3.55;;;;;;;;;;5170792;28;20100;-60
2023/12/03 07:06:56;;;;;;;6.85;3.67;;;;;;;;;;5167958;28;20408;-60
2023/12/03 07:09:27;;;;;;;6.30;3.28;;;;;;;;;;5166394;28;20104;-59
2023/12/03 07:11:58;;;;;;;6.60;3.10;;;;;;;;;;5165441;28;20037;-61
2023/12/03 07:14:29;;;;;;;5.13;3.20;;;;;;;;;;5173161;28;20042;-60
2023/12/03 07:17:00;;;;;;;5.10;3.58;;;;;;;;;;5164840;28;20046;-60
2023/12/03 07:19:32;;;;;;;5.38;3.30;;;;;;;;;;5173045;28;20480;-60
2023/12/03 07:22:03;;;;;;;6.18;3.97;;;;;;;;;;5173493;28;20049;-61
2023/12/03 07:24:34;;;;;;;6.03;3.70;;;;;;;;;;5161925;28;20077;-61
2023/12/03 07:27:05;;;;;;;5.95;3.97;;;;;;;;;;5166474;28;20050;-60
2023/12/03 07:29:36;;;;;;;7.23;4.40;;;;;;;;;;5150970;28;20487;-60
2023/12/03 07:32:07;;;;;;;8.23;4.30;;;;;;;;;;5165192;28;20096;-61
2023/12/03 07:34:39;;;;;;;7.85;3.40;;;;;;;;;;5165866;28;20030;-61
2023/12/03 07:37:10;;;;;;;6.47;3.60;;;;;;;;;;5174569;28;20100;-60
2023/12/03 07:39:41;;;;;;;5.88;3.28;;;;;;;;;;5167865;28;20053;-62
2023/12/03 07:42:12;;;;;;;5.53;3.38;;;;;;;;;;5165697;28;20546;-60
2023/12/03 07:44:43;;;;;;;7.10;4.07;;;;;;;;;;5165788;28;20045;-61
2023/12/03 07:47:14;;;;;;;7.05;3.50;;;;;;;;;;5163532;28;20034;-60
2023/12/03 07:49:45;;;;;;;5.85;3.25;;;;;;;;;;5165483;28;20137;-61
2023/12/03 07:52:17;;;;;;;6.32;3.30;;;;;;;;;;5191842;28;20116;-61
2023/12/03 07:54:48;;;;;;;7.18;3.40;;;;;;;;;;5169755;28;20495;-60
2023/12/03 07:57:19;;;;;;;7.10;3.42;;;;;;;;;;5168165;28;20034;-61
2023/12/03 07:59:50;;;;;;;5.90;3.42;;;;;;;;;;5169198;28;20040;-59
2023/12/03 08:02:21;;;;;;;6.88;3.90;;;;;;;;;;5157511;28;20564;-61
2023/12/03 08:04:52;;;;;;;4.97;2.97;;;;;;;;;;5166627;28;20554;-59
2023/12/03 08:07:23;;;;;;;5.05;3.25;;;;;;;;;;5171339;28;20399;-60
2023/12/03 08:09:54;;;;;;;6.30;3.47;;;;;;;;;;5171345;28;20046;-60
2023/12/03 08:12:25;;;;;;;6.38;3.55;;;;;;;;;;5168647;28;20121;-59
2023/12/03 08:14:56;;;;;;;6.45;3.83;;;;;;;;;;5173377;28;20052;-60
2023/12/03 08:17:28;;;;;;;7.50;3.65;;;;;;;;;;5168540;28;20033;-60
2023/12/03 08:19:59;;;;;;;8.68;3.88;;;;;;;;;;5168582;28;20052;-59
2023/12/03 08:22:30;;;;;;;8.50;3.95;;;;;;;;;;5152229;28;20049;-59
2023/12/03 08:25:01;;;;;;;6.80;4.22;;;;;;;;;;5161059;28;20060;-59
2023/12/03 08:27:32;;;;;;;6.13;3.67;;;;;;;;;;5168134;28;20037;-59
2023/12/03 08:30:04;;;;;;;6.28;4.00;;;;;;;;;;5173574;28;20042;-60
2023/12/03 08:32:35;;;;;;;9.82;4.03;;;;;;;;;;5163069;28;20096;-59
2023/12/03 08:35:06;;;;;;;6.35;4.10;;;;;;;;;;5152047;28;20780;-59
2023/12/03 08:37:37;;;;;;;8.57;5.03;;;;;;;;;;5168371;28;20452;-59
2023/12/03 08:40:09;;;;;;;9.93;5.82;;;;;;;;;;5171471;28;20310;-59
2023/12/03 08:42:44;;;;;;;13.70;6.45;;;;;;;;;;5171193;28;20073;-59
2023/12/03 08:45:15;;;;;;;16.88;6.80;;;;;;;;;;5155476;28;20106;-60
2023/12/03 08:47:46;;;;;;;17.45;8.40;;;;;;;;;;5166463;28;20050;-59
2023/12/03 08:50:18;;;;;;;17.95;8.05;;;;;;;;;;5169626;28;20050;-59
2023/12/03 08:52:49;;;;;;;21.07;8.77;;;;;;;;;;5167214;28;20033;-60
2023/12/03 08:55:20;;;;;;;17.55;9.77;;;;;;;;;;5175199;28;20271;-59
2023/12/03 08:57:51;;;;;;;24.95;10.38;;;;;;;;;;5169724;28;20049;-59
2023/12/03 09:00:22;;;;;;;16.83;8.77;;;;;;;;;;5168124;28;20798;-59
2023/12/03 09:02:53;;;;;;;21.73;9.73;;;;;;;;;;5172526;28;20660;-61
2023/12/03 09:05:24;;;;;;;25.10;10.55;;;;;;;;;;5172105;28;20121;-58
2023/12/03 09:07:56;;;;;;;19.42;10.00;;;;;;;;;;5170996;28;20037;-59
2023/12/03 09:10:27;;;;;;;25.25;11.52;;;;;;;;;;5166356;28;20232;-59
2023/12/03 09:12:58;;;;;;;23.10;10.43;;;;;;;;;;5166810;28;20048;-58
2023/12/03 09:15:29;;;;;;;22.05;10.15;;;;;;;;;;5167153;28;20042;-59
2023/12/03 09:18:00;;;;;;;23.13;10.00;;;;;;;;;;5165056;28;20046;-62
2023/12/03 09:20:32;;;;;;;20.33;9.70;;;;;;;;;;5164076;28;20033;-63
2023/12/03 09:23:03;;;;;;;17.92;10.02;;;;;;;;;;5165049;28;20103;-62
2023/12/03 09:25:35;;;;;;;19.50;9.20;;;;;;;;;;5151455;28;20151;-59
2023/12/03 09:28:06;;;;;;;21.60;9.82;;;;;;;;;;5164375;28;20075;-60
2023/12/03 09:30:38;;;;;;;24.52;10.43;;;;;;;;;;5150625;28;20453;-56
2023/12/03 09:33:09;;;;;;;20.00;10.02;;;;;;;;;;5163239;28;20096;-57
2023/12/03 09:35:41;;;;;;;17.10;11.10;;;;;;;;;;5150466;28;20088;-57
2023/12/03 09:38:14;;;;;;;20.10;10.05;;;;;;;;;;5166035;28;20033;-56
2023/12/03 09:40:48;;;;;;;19.13;10.38;;;;;;;;;;5163244;28;20124;-58
2023/12/03 09:43:19;;;;;;;21.50;10.80;;;;;;;;;;5146435;28;20106;-57
2023/12/03 09:45:51;;;;;;;25.13;11.90;;;;;;;;;;5163827;28;20034;-57
2023/12/03 09:48:23;;;;;;;20.38;10.27;;;;;;;;;;5166017;28;20374;-56
2023/12/03 09:50:55;;;;;;;19.38;9.98;;;;;;;;;;5166125;28;20096;-55
2023/12/03 09:53:27;;;;;;;17.15;9.75;;;;;;;;;;5167089;28;20046;-56
2023/12/03 09:55:58;;;;;;;17.38;10.18;;;;;;;;;;5164997;28;20138;-55
2023/12/03 09:58:30;;;;;;;22.17;11.95;;;;;;;;;;5165617;28;20041;-55
2023/12/03 10:01:01;;;;;;;20.17;10.47;;;;;;;;;;5160540;28;20057;-56
2023/12/03 10:03:32;;;;;;;21.05;11.32;;;;;;;;;;5166406;28;20865;-57
2023/12/03 10:06:07;;;;;;;22.13;10.55;;;;;;;;;;5173711;28;20061;-57
2023/12/03 10:08:43;;;;;;;24.17;11.00;;;;;;;;;;5149918;28;20081;-59
2023/12/03 10:11:17;;;;;;;22.52;11.25;;;;;;;;;;5165922;28;20085;-60
2023/12/03 10:13:50;;;;;;;19.75;10.27;;;;;;;;;;5165837;28;20064;-62
2023/12/03 10:16:22;;;;;;;19.73;10.77;;;;;;;;;;5174392;28;20365;-62
2023/12/03 10:18:53;;;;;;;;;;;;;;;;;;5169792;28;20042;-60
2023/12/03 10:21:27;;;;;;;16.65;9.27;;;;;;;;;;5164866;28;19917;-59
2023/12/03 10:24:00;;;;;;;20.65;10.63;;;;;;;;;;5148258;28;20136;-59
2023/12/03 10:26:32;;;;;;;21.35;10.27;;;;;;;;;;5164055;28;20397;-57
2023/12/03 10:29:03;;;;;;;19.42;10.02;;;;;;;;;;5163544;28;20048;-57
2023/12/03 10:31:36;;;;;;;22.85;9.68;;;;;;;;;;5165474;28;20484;-56
2023/12/03 10:34:07;;;;;;;21.48;9.88;;;;;;;;;;5171312;28;20547;-56
2023/12/03 10:36:39;;;;;;;17.37;9.70;;;;;;;;;;5152333;28;20449;-56
2023/12/03 10:39:17;;;;;;;20.85;11.55;;;;;;;;;;5169596;28;20275;-56
2023/12/03 10:41:52;;;;;;;20.25;11.15;;;;;;;;;;5170860;28;20125;-60
2023/12/03 10:44:24;;;;;;;20.42;11.40;;;;;;;;;;5154519;28;20042;-61
2023/12/03 10:46:58;;;;;;;21.02;11.52;;;;;;;;;;5167325;28;20484;-61
2023/12/03 10:49:31;;;;;;;20.77;11.27;;;;;;;;;;5151432;28;20044;-59
2023/12/03 10:52:03;;;;;;;22.45;12.38;;;;;;;;;;5164930;28;20042;-59
2023/12/03 10:54:35;;;;;;;23.90;11.15;;;;;;;;;;5165174;28;20396;-59
2023/12/03 10:57:06;;;;;;;21.50;11.40;;;;;;;;;;5167172;28;20129;-61
2023/12/03 10:59:41;;;;;;;16.27;10.15;;;;;;;;;;5163141;28;20041;-59
2023/12/03 11:02:13;;;;;;;19.20;11.52;;;;;;;;;;5164225;28;20045;-60
2023/12/03 11:04:44;;;;;;;;;;;;;;;;;;5165223;28;20082;-62
2023/12/03 11:07:20;;;;;;;19.80;10.07;;;;;;;;;;5165045;28;19917;-61
2023/12/03 11:09:51;;;;;;;20.65;10.82;;;;;;;;;;5160521;28;20054;-60
2023/12/03 11:12:24;;;;;;;16.45;9.07;;;;;;;;;;5148726;28;20042;-60
2023/12/03 11:14:55;;;;;;;19.52;10.18;;;;;;;;;;5165319;28;20038;-60
2023/12/03 11:17:28;;;;;;;14.23;8.67;;;;;;;;;;5165462;28;20520;-60
2023/12/03 11:20:04;;;;;;;21.85;10.48;;;;;;;;;;5165143;28;20038;-61
2023/12/03 11:22:54;;;;;;;23.50;11.07;;;;;;;;;;5155551;28;20480;-61
2023/12/03 11:25:30;;;;;;;20.40;10.55;;;;;;;;;;5168830;28;20125;-60
2023/12/03 11:28:01;;;;;;;18.00;11.13;;;;;;;;;;5169153;28;20045;-59
2023/12/03 11:30:42;;;;;;;26.93;10.70;;;;;;;;;;5168939;28;20038;-60
2023/12/03 11:33:14;;;;;;;18.05;11.20;;;;;;;;;;5170085;28;20507;-60
2023/12/03 11:35:46;;;;;;;18.60;10.75;;;;;;;;;;5179319;28;20037;-60
2023/12/03 11:38:21;;;;;;;17.75;9.88;;;;;;;;;;5169015;28;20092;-60
2023/12/03 11:40:52;;;;;;;17.15;10.27;;;;;;;;;;5169027;28;20050;-60
2023/12/03 11:43:28;;;;;;;15.63;10.05;;;;;;;;;;5169001;28;20041;-60
2023/12/03 11:45:59;;;;;;;17.17;10.45;;;;;;;;;;5168766;28;20527;-60
2023/12/03 11:48:31;;;;;;;18.07;10.93;;;;;;;;;;5168658;28;20109;-60
2023/12/03 11:51:03;;;;;;;19.58;10.40;;;;;;;;;;5168516;28;20279;-60
2023/12/03 11:53:44;;;;;;;16.85;10.35;;;;;;;;;;5168579;28;20038;-62
2023/12/03 11:56:16;;;;;;;18.40;10.95;;;;;;;;;;5168730;28;20037;-58
2023/12/03 11:58:50;;;;;;;17.52;10.93;;;;;;;;;;5168461;28;20048;-60
2023/12/03 12:01:21;;;;;;;18.45;11.10;;;;;;;;;;5168500;28;20046;-60
2023/12/03 12:03:52;;;;;;;17.90;10.80;;;;;;;;;;5168261;28;20045;-61
2023/12/03 12:06:26;;;;;;;18.35;11.23;;;;;;;;;;5168728;28;20516;-63
2023/12/03 12:08:58;;;;;;;16.08;10.98;;;;;;;;;;5167626;28;20561;-63
2023/12/03 12:11:29;;;;;;;18.40;10.93;;;;;;;;;;5152316;28;20041;-62
2023/12/03 12:14:00;;;;;;;18.17;10.77;;;;;;;;;;5168137;28;20042;-61
2023/12/03 12:16:32;;;;;;;18.77;11.13;;;;;;;;;;5168134;28;20045;-61
2023/12/03 12:19:04;;;;;;;18.85;11.60;;;;;;;;;;5168332;28;20464;-61
2023/12/03 12:21:35;;;;;;;19.30;11.32;;;;;;;;;;5168289;28;20493;-61
2023/12/03 12:24:07;;;;;;;17.65;11.63;;;;;;;;;;5163946;28;20528;-61
2023/12/03 12:26:38;;;;;;;15.02;10.52;;;;;;;;;;5162300;28;20439;-61
2023/12/03 12:29:10;;;;;;;20.77;11.70;;;;;;;;;;5164996;28;20492;-61
2023/12/03 12:31:41;;;;;;;17.17;12.05;;;;;;;;;;5187190;28;20038;-61
2023/12/03 12:34:12;;;;;;;16.98;11.50;;;;;;;;;;5167028;28;20033;-60
2023/12/03 12:36:44;;;;;;;15.48;11.35;;;;;;;;;;5173693;28;20040;-61
2023/12/03 12:39:26;;;;;;;18.73;10.73;;;;;;;;;;5168131;28;20038;-62
2023/12/03 12:41:57;;;;;;;18.33;11.97;;;;;;;;;;5167874;28;20077;-62
2023/12/03 12:44:39;;;;;;;19.55;12.10;;;;;;;;;;5167917;28;20037;-61
2023/12/03 12:47:10;;;;;;;17.20;11.63;;;;;;;;;;5167827;28;20041;-62
2023/12/03 12:49:51;;;;;;;22.77;11.75;;;;;;;;;;5167837;28;20045;-62
2023/12/03 12:52:23;;;;;;;19.80;11.85;;;;;;;;;;5167856;28;20480;-61
2023/12/03 12:54:54;;;;;;;;;;;;;;;;;;5168166;28;20085;-61
2023/12/03 12:57:26;;;;;;;17.98;10.35;;;;;;;;;;5167466;28;19924;-61
2023/12/03 12:59:57;;;;;;;17.98;11.23;;;;;;;;;;5167327;28;20092;-61
2023/12/03 13:02:28;;;;;;;17.00;10.85;;;;;;;;;;5168036;28;20492;-61
2023/12/03 13:05:00;;;;;;;17.17;10.88;;;;;;;;;;5167869;28;20042;-61
2023/12/03 13:07:31;;;;;;;17.93;10.53;;;;;;;;;;5167476;28;20040;-61
2023/12/03 13:10:03;;;;;;;16.27;11.20;;;;;;;;;;5162892;28;20584;-61
2023/12/03 13:12:34;;;;;;;16.88;10.30;;;;;;;;;;5167401;28;20077;-61
2023/12/03 13:15:08;;;;;;;17.90;10.73;;;;;;;;;;5167704;28;20077;-61
2023/12/03 13:17:46;;;;;;;18.20;11.00;;;;;;;;;;5167624;28;20100;-60
2023/12/03 13:20:17;;;;;;;16.00;10.50;;;;;;;;;;5178383;28;20042;-61
2023/12/03 13:22:53;;;;;;;15.75;9.93;;;;;;;;;;5166980;28;20044;-61
2023/12/03 13:25:25;;;;;;;19.02;10.25;;;;;;;;;;5180033;28;20046;-61
2023/12/03 13:27:56;;;;;;;15.10;10.20;;;;;;;;;;5167329;28;20041;-59
2023/12/03 13:30:28;;;;;;;21.17;11.13;;;;;;;;;;5167157;28;20038;-60
2023/12/03 13:32:59;;;;;;;16.52;9.60;;;;;;;;;;5166919;28;20038;-60
2023/12/03 13:35:30;;;;;;;13.48;8.38;;;;;;;;;;5167132;28;20046;-60
2023/12/03 13:38:01;;;;;;;13.27;9.18;;;;;;;;;;5166721;28;20108;-61
2023/12/03 13:40:33;;;;;;;14.65;9.73;;;;;;;;;;5166682;28;20042;-60
2023/12/03 13:43:04;;;;;;;13.40;8.93;;;;;;;;;;5166658;28;20048;-60
2023/12/03 13:45:35;;;;;;;13.88;8.65;;;;;;;;;;5166320;28;20109;-61
2023/12/03 13:48:06;;;;;;;15.70;9.97;;;;;;;;;;5165836;28;20045;-60
2023/12/03 13:50:39;;;;;;;15.15;9.10;;;;;;;;;;5166187;28;20377;-62
2023/12/03 13:53:10;;;;;;;14.43;8.52;;;;;;;;;;5165474;28;20551;-62
2023/12/03 13:55:41;;;;;;;12.70;8.50;;;;;;;;;;5170390;28;20037;-60
2023/12/03 13:58:12;;;;;;;12.10;8.23;;;;;;;;;;5165715;28;20049;-61
2023/12/03 14:00:43;;;;;;;14.02;9.13;;;;;;;;;;5165739;28;20041;-59
2023/12/03 14:03:15;;;;;;;12.73;7.95;;;;;;;;;;5165636;28;20037;-61
2023/12/03 14:05:46;;;;;;;14.32;8.75;;;;;;;;;;5165669;28;20057;-60
2023/12/03 14:08:17;;;;;;;14.07;8.57;;;;;;;;;;5165505;28;20062;-61
2023/12/03 14:10:48;;;;;;;15.98;9.10;;;;;;;;;;5164895;28;20067;-62
2023/12/03 14:13:19;;;;;;;12.13;8.68;;;;;;;;;;5165376;28;20042;-60
2023/12/03 14:15:50;;;;;;;13.77;8.75;;;;;;;;;;5165036;28;20071;-60
2023/12/03 14:18:22;;;;;;;12.43;8.48;;;;;;;;;;5165867;28;20042;-63
2023/12/03 14:20:53;;;;;;;10.82;7.78;;;;;;;;;;5194620;28;20179;-61
2023/12/03 14:23:24;;;;;;;12.75;7.95;;;;;;;;;;5165940;28;20507;-60
2023/12/03 14:25:56;;;;;;;11.63;7.15;;;;;;;;;;5165600;28;20045;-59
2023/12/03 14:28:27;;;;;;;11.05;6.75;;;;;;;;;;5165498;28;20045;-61
2023/12/03 14:30:58;;;;;;;14.55;7.47;;;;;;;;;;5157934;28;20093;-60
2023/12/03 14:33:29;;;;;;;12.70;7.05;;;;;;;;;;5165806;28;20471;-61
2023/12/03 14:36:00;;;;;;;11.67;7.10;;;;;;;;;;5166070;28;20042;-61
2023/12/03 14:38:31;;;;;;;9.30;6.57;;;;;;;;;;5167400;28;20761;-61
2023/12/03 14:41:06;;;;;;;10.35;6.63;;;;;;;;;;5165562;28;20068;-60
2023/12/03 14:43:40;;;;;;;9.50;6.55;;;;;;;;;;5165684;28;20045;-60
2023/12/03 14:46:18;;;;;;;10.60;6.85;;;;;;;;;;5165345;28;20041;-60
2023/12/03 14:48:49;;;;;;;10.07;6.88;;;;;;;;;;5173032;28;20494;-59
2023/12/03 14:51:21;;;;;;;12.05;6.82;;;;;;;;;;5162690;28;20492;-61
2023/12/03 14:53:53;;;;;;;9.45;6.97;;;;;;;;;;5165828;28;20448;-60
2023/12/03 14:56:27;;;;;;;10.57;7.13;;;;;;;;;;5164888;28;20494;-60
2023/12/03 14:59:05;;;;;;;8.52;5.50;;;;;;;;;;5165523;28;20372;-60
2023/12/03 15:01:36;;;;;;;10.68;5.82;;;;;;;;;;5164167;28;20333;-60